createdAt,value
2023-04-11T00:00:10.828Z,73.06
2023-04-11T00:00:38.434Z,72.83
2023-04-11T00:01:01.775Z,73.04
2023-04-11T00:01:25.170Z,73.13
2023-04-11T00:01:49.926Z,73.14
2023-04-11T00:02:13.969Z,73.17
2023-04-11T00:02:39.263Z,73.17
2023-04-11T00:03:03.101Z,73.42
2023-04-11T00:03:26.668Z,73.29
2023-04-11T00:03:50.170Z,73.33
2023-04-11T00:04:15.182Z,73.54
2023-04-11T00:04:39.364Z,73.32
2023-04-11T00:05:03.397Z,73.38
2023-04-11T00:05:27.571Z,73.37
2023-04-11T00:05:50.680Z,73.44
2023-04-11T00:06:20.537Z,73.45
2023-04-11T00:06:44.805Z,73.49
2023-04-11T00:07:07.885Z,73.59
2023-04-11T00:07:32.743Z,73.65
2023-04-11T00:07:55.979Z,73.85
2023-04-11T00:08:19.895Z,73.79
2023-04-11T00:08:44.659Z,73.74
2023-04-11T00:09:08.781Z,73.78
2023-04-11T00:09:32.099Z,73.87
2023-04-11T00:09:56.236Z,73.94
2023-04-11T00:10:19.655Z,73.92
2023-04-11T00:10:44.960Z,73.90
2023-04-11T00:11:08.851Z,74.00
2023-04-11T00:11:32.372Z,74.07
2023-04-11T00:11:57.035Z,74.16
2023-04-11T00:12:20.300Z,74.13
2023-04-11T00:12:43.454Z,74.13
2023-04-11T00:13:10.491Z,74.26
2023-04-11T00:13:37.871Z,74.33
2023-04-11T00:14:01.188Z,74.37
2023-04-11T00:14:25.324Z,74.32
2023-04-11T00:14:49.457Z,74.25
2023-04-11T00:15:12.477Z,74.35
2023-04-11T00:15:37.745Z,74.24
2023-04-11T00:16:03.698Z,74.44
2023-04-11T00:16:27.038Z,74.37
2023-04-11T00:16:54.130Z,74.38
2023-04-11T00:17:17.958Z,74.47
2023-04-11T00:17:41.753Z,74.34
2023-04-11T00:18:06.573Z,74.39
2023-04-11T00:18:29.732Z,74.40
2023-04-11T00:18:53.034Z,74.57
2023-04-11T00:19:17.219Z,74.52
2023-04-11T00:19:40.328Z,74.65
2023-04-11T00:20:11.084Z,74.60
2023-04-11T00:20:34.446Z,74.79
2023-04-11T00:21:00.612Z,74.88
2023-04-11T00:21:25.050Z,75.03
2023-04-11T00:21:48.269Z,75.10
2023-04-11T00:22:14.039Z,75.23
2023-04-11T00:22:39.106Z,75.22
2023-04-11T00:23:02.215Z,75.29
2023-04-11T00:23:25.957Z,75.38
2023-04-11T00:23:49.777Z,75.45
2023-04-11T00:24:12.993Z,75.54
2023-04-11T00:24:36.410Z,75.60
2023-04-11T00:24:59.426Z,75.63
2023-04-11T00:25:22.666Z,75.63
2023-04-11T00:25:45.970Z,75.66
2023-04-11T00:26:09.196Z,75.76
2023-04-11T00:26:38.934Z,75.82
2023-04-11T00:27:02.238Z,75.83
2023-04-11T00:27:26.402Z,75.92
2023-04-11T00:27:49.508Z,76.06
2023-04-11T00:28:13.135Z,76.02
2023-04-11T00:28:37.488Z,76.00
2023-04-11T00:29:00.803Z,76.01
2023-04-11T00:29:24.415Z,76.17
2023-04-11T00:29:47.629Z,76.30
2023-04-11T00:30:11.256Z,76.25
2023-04-11T00:30:34.377Z,76.30
2023-04-11T00:30:58.403Z,76.23
2023-04-11T00:31:21.588Z,76.38
2023-04-11T00:31:44.807Z,76.50
2023-04-11T00:32:08.086Z,76.50
2023-04-11T00:32:31.311Z,76.63
2023-04-11T00:32:54.423Z,76.65
2023-04-11T00:33:18.675Z,76.63
2023-04-11T00:33:42.108Z,76.71
2023-04-11T00:34:05.377Z,76.68
2023-04-11T00:34:28.686Z,76.84
2023-04-11T00:34:52.615Z,76.84
2023-04-11T00:35:16.235Z,76.80
2023-04-11T00:35:40.939Z,76.85
2023-04-11T00:36:04.496Z,76.85
2023-04-11T00:36:28.615Z,76.87
2023-04-11T00:36:51.819Z,76.94
2023-04-11T00:37:15.081Z,76.76
2023-04-11T00:37:38.397Z,76.73
2023-04-11T00:38:02.504Z,76.74
2023-04-11T00:38:25.547Z,76.73
2023-04-11T00:38:55.230Z,76.74
2023-04-11T00:39:20.466Z,76.72
2023-04-11T00:39:45.248Z,76.77
2023-04-11T00:40:09.057Z,76.83
2023-04-11T00:40:32.773Z,76.94
2023-04-11T00:41:15.629Z,76.97
2023-04-11T00:41:43.140Z,77.18
2023-04-11T00:42:08.000Z,77.15
2023-04-11T00:42:33.869Z,77.28
2023-04-11T00:42:57.090Z,77.25
2023-04-11T00:43:20.404Z,77.38
2023-04-11T00:43:43.437Z,77.38
2023-04-11T00:44:07.255Z,77.31
2023-04-11T00:44:31.996Z,77.49
2023-04-11T00:44:55.315Z,77.57
2023-04-11T00:45:18.398Z,77.62
2023-04-11T00:45:41.559Z,77.70
2023-04-11T00:46:05.728Z,77.64
2023-04-11T00:46:28.998Z,77.80
2023-04-11T00:46:52.009Z,77.75
2023-04-11T00:47:15.483Z,77.82
2023-04-11T00:47:39.033Z,77.88
2023-04-11T00:48:08.449Z,77.95
2023-04-11T00:48:36.636Z,78.02
2023-04-11T00:48:59.832Z,77.76
2023-04-11T00:49:26.544Z,78.08
2023-04-11T00:49:50.075Z,78.07
2023-04-11T00:50:14.284Z,78.10
2023-04-11T00:50:41.715Z,78.15
2023-04-11T00:51:05.464Z,78.17
2023-04-11T00:51:28.866Z,78.17
2023-04-11T00:51:52.102Z,78.17
2023-04-11T00:52:16.113Z,78.18
2023-04-11T00:52:39.435Z,78.10
2023-04-11T00:53:02.549Z,78.19
2023-04-11T00:53:25.968Z,78.31
2023-04-11T00:53:49.398Z,78.35
2023-04-11T00:54:13.427Z,78.33
2023-04-11T00:54:36.331Z,78.38
2023-04-11T00:55:09.689Z,78.40
2023-04-11T00:55:33.302Z,78.49
2023-04-11T00:55:56.415Z,78.17
2023-04-11T00:56:21.062Z,78.30
2023-04-11T00:56:44.079Z,78.25
2023-04-11T00:57:09.014Z,78.15
2023-04-11T00:57:32.558Z,78.23
2023-04-11T00:57:56.081Z,78.14
2023-04-11T00:58:19.907Z,78.15
2023-04-11T00:58:43.433Z,78.12
2023-04-11T00:59:06.850Z,78.14
2023-04-11T00:59:30.375Z,78.15
2023-04-11T00:59:53.493Z,78.13
2023-04-11T01:00:16.607Z,78.19
2023-04-11T01:00:42.996Z,78.26
2023-04-11T01:01:09.674Z,78.30
2023-04-11T01:01:36.622Z,78.30
2023-04-11T01:02:00.512Z,78.49
2023-04-11T01:02:25.201Z,78.38
2023-04-11T01:02:50.595Z,78.48
2023-04-11T01:03:14.828Z,78.35
2023-04-11T01:03:38.968Z,78.57
2023-04-11T01:04:02.492Z,78.74
2023-04-11T01:04:32.931Z,78.59
2023-04-11T01:04:56.838Z,78.54
2023-04-11T01:05:20.370Z,78.55
2023-04-11T01:05:43.678Z,78.68
2023-04-11T01:06:08.942Z,78.64
2023-04-11T01:06:32.055Z,78.73
2023-04-11T01:06:56.807Z,78.78
2023-04-11T01:07:19.816Z,78.74
2023-04-11T01:07:44.057Z,78.85
2023-04-11T01:08:07.894Z,78.77
2023-04-11T01:08:31.133Z,78.84
2023-04-11T01:08:54.485Z,78.66
2023-04-11T01:09:19.078Z,78.88
2023-04-11T01:09:42.292Z,78.86
2023-04-11T01:10:06.113Z,78.87
2023-04-11T01:10:30.927Z,78.90
2023-04-11T01:10:54.113Z,78.92
2023-04-11T01:11:20.339Z,78.91
2023-04-11T01:11:43.379Z,78.87
2023-04-11T01:12:06.717Z,78.94
2023-04-11T01:12:29.915Z,78.98
2023-04-11T01:13:01.413Z,79.03
2023-04-11T01:13:34.251Z,79.09
2023-04-11T01:13:57.601Z,79.07
2023-04-11T01:14:22.211Z,79.30
2023-04-11T01:14:47.988Z,79.11
2023-04-11T01:15:11.039Z,79.04
2023-04-11T01:15:34.726Z,79.10
2023-04-11T01:15:58.082Z,79.08
2023-04-11T01:16:21.898Z,78.93
2023-04-11T01:16:47.569Z,78.98
2023-04-11T01:17:12.924Z,78.95
2023-04-11T01:17:36.284Z,79.00
2023-04-11T01:18:02.397Z,78.81
2023-04-11T01:18:28.389Z,78.91
2023-04-11T01:18:51.813Z,78.92
2023-04-11T01:19:18.234Z,78.86
2023-04-11T01:19:42.752Z,78.85
2023-04-11T01:20:07.961Z,78.94
2023-04-11T01:20:32.037Z,78.99
2023-04-11T01:20:55.764Z,79.01
2023-04-11T01:21:20.720Z,78.96
2023-04-11T01:21:45.063Z,79.13
2023-04-11T01:22:08.074Z,79.03
2023-04-11T01:22:31.902Z,79.12
2023-04-11T01:22:56.969Z,79.24
2023-04-11T01:23:26.114Z,79.34
2023-04-11T01:23:52.852Z,79.52
2023-04-11T01:24:15.920Z,79.51
2023-04-11T01:24:39.052Z,79.44
2023-04-11T01:25:03.385Z,79.57
2023-04-11T01:25:27.302Z,79.68
2023-04-11T01:25:51.244Z,79.68
2023-04-11T01:26:14.656Z,79.55
2023-04-11T01:26:38.181Z,79.73
2023-04-11T01:27:02.323Z,79.74
2023-04-11T01:27:26.045Z,79.76
2023-04-11T01:27:49.059Z,79.79
2023-04-11T01:28:13.114Z,79.86
2023-04-11T01:28:36.424Z,79.87
2023-04-11T01:28:59.934Z,80.01
2023-04-11T01:29:22.920Z,80.15
2023-04-11T01:29:46.164Z,80.05
2023-04-11T01:30:12.884Z,80.05
2023-04-11T01:30:36.288Z,80.16
2023-04-11T01:30:59.523Z,80.23
2023-04-11T01:31:27.341Z,80.22
2023-04-11T01:31:51.175Z,80.10
2023-04-11T01:32:14.566Z,80.14
2023-04-11T01:32:37.911Z,80.11
2023-04-11T01:33:01.083Z,80.00
2023-04-11T01:33:25.028Z,80.03
2023-04-11T01:33:48.355Z,79.91
2023-04-11T01:34:14.327Z,80.06
2023-04-11T01:34:37.956Z,79.87
2023-04-11T01:35:01.067Z,79.90
2023-04-11T01:35:24.486Z,79.92
2023-04-11T01:35:47.794Z,79.78
2023-04-11T01:36:11.608Z,79.96
2023-04-11T01:36:39.456Z,80.04
2023-04-11T01:37:02.975Z,79.99
2023-04-11T01:37:26.333Z,80.00
2023-04-11T01:37:50.334Z,80.19
2023-04-11T01:38:13.647Z,80.21
2023-04-11T01:38:37.172Z,80.21
2023-04-11T01:39:00.703Z,80.18
2023-04-11T01:39:24.121Z,80.26
2023-04-11T01:39:47.240Z,80.38
2023-04-11T01:40:10.751Z,80.46
2023-04-11T01:40:35.093Z,80.46
2023-04-11T01:40:58.311Z,80.43
2023-04-11T01:41:21.729Z,80.52
2023-04-11T01:41:52.106Z,80.50
2023-04-11T01:42:15.453Z,80.49
2023-04-11T01:42:38.491Z,80.74
2023-04-11T01:43:04.836Z,80.57
2023-04-11T01:43:28.448Z,80.59
2023-04-11T01:43:51.662Z,80.64
2023-04-11T01:44:15.716Z,80.65
2023-04-11T01:44:39.016Z,80.71
2023-04-11T01:45:02.438Z,80.80
2023-04-11T01:45:26.475Z,80.74
2023-04-11T01:45:51.542Z,80.83
2023-04-11T01:46:14.847Z,80.78
2023-04-11T01:46:37.860Z,80.92
2023-04-11T01:47:04.254Z,80.97
2023-04-11T01:47:28.050Z,80.95
2023-04-11T01:47:54.830Z,81.01
2023-04-11T01:48:18.123Z,80.99
2023-04-11T01:48:42.487Z,81.00
2023-04-11T01:49:06.868Z,81.00
2023-04-11T01:49:30.935Z,80.94
2023-04-11T01:49:54.033Z,81.06
2023-04-11T01:50:17.237Z,81.03
2023-04-11T01:50:43.011Z,80.92
2023-04-11T01:51:07.554Z,80.91
2023-04-11T01:51:30.978Z,80.80
2023-04-11T01:51:55.032Z,80.88
2023-04-11T01:52:18.329Z,81.08
2023-04-11T01:52:42.462Z,80.87
2023-04-11T01:53:11.830Z,80.95
2023-04-11T01:53:35.045Z,80.86
2023-04-11T01:53:58.868Z,80.94
2023-04-11T01:54:22.391Z,81.09
2023-04-11T01:54:46.015Z,81.08
2023-04-11T01:55:09.334Z,81.24
2023-04-11T01:55:33.366Z,81.12
2023-04-11T01:55:56.998Z,81.08
2023-04-11T01:56:20.238Z,81.23
2023-04-11T01:56:43.834Z,81.43
2023-04-11T01:57:07.059Z,81.36
2023-04-11T01:57:30.168Z,81.42
2023-04-11T01:57:53.282Z,81.38
2023-04-11T01:58:16.603Z,81.38
2023-04-11T01:58:39.827Z,81.47
2023-04-11T01:59:05.811Z,81.57
2023-04-11T01:59:29.110Z,81.57
2023-04-11T01:59:54.175Z,81.58
2023-04-11T02:00:17.697Z,81.71
2023-04-11T02:00:42.238Z,81.68
2023-04-11T02:01:05.704Z,81.74
2023-04-11T02:01:32.204Z,81.82
2023-04-11T02:01:55.649Z,81.78
2023-04-11T02:02:20.908Z,81.87
2023-04-11T02:02:44.302Z,81.92
2023-04-11T02:03:07.833Z,81.89
2023-04-11T02:03:32.783Z,81.93
2023-04-11T02:03:57.667Z,81.99
2023-04-11T02:04:21.188Z,82.00
2023-04-11T02:04:44.733Z,82.07
2023-04-11T02:05:11.032Z,82.07
2023-04-11T02:05:36.376Z,82.02
2023-04-11T02:06:04.108Z,82.11
2023-04-11T02:06:38.786Z,82.02
2023-04-11T02:07:03.008Z,82.11
2023-04-11T02:07:29.019Z,82.15
2023-04-11T02:07:52.923Z,82.00
2023-04-11T02:08:16.438Z,82.08
2023-04-11T02:08:41.153Z,81.97
2023-04-11T02:09:04.614Z,81.94
2023-04-11T02:09:28.234Z,81.92
2023-04-11T02:09:51.363Z,81.96
2023-04-11T02:10:15.079Z,81.98
2023-04-11T02:10:38.396Z,81.95
2023-04-11T02:11:01.549Z,81.99
2023-04-11T02:11:24.929Z,82.08
2023-04-11T02:11:47.954Z,82.27
2023-04-11T02:12:12.973Z,82.12
2023-04-11T02:12:37.654Z,82.07
2023-04-11T02:13:04.443Z,82.28
2023-04-11T02:13:37.189Z,82.39
2023-04-11T02:14:06.493Z,82.35
2023-04-11T02:14:38.857Z,82.50
2023-04-11T02:15:02.796Z,82.50
2023-04-11T02:15:28.573Z,82.55
2023-04-11T02:15:53.384Z,82.48
2023-04-11T02:16:20.974Z,82.53
2023-04-11T02:16:51.217Z,82.58
2023-04-11T02:17:14.356Z,82.59
2023-04-11T02:17:37.771Z,82.61
2023-04-11T02:18:02.075Z,82.65
2023-04-11T02:18:26.301Z,82.64
2023-04-11T02:18:49.517Z,82.68
2023-04-11T02:19:12.733Z,82.73
2023-04-11T02:19:36.415Z,82.73
2023-04-11T02:19:59.476Z,82.79
2023-04-11T02:20:24.720Z,82.92
2023-04-11T02:20:53.280Z,82.91
2023-04-11T02:21:19.050Z,82.90
2023-04-11T02:21:50.034Z,82.73
2023-04-11T02:22:13.260Z,82.80
2023-04-11T02:22:37.126Z,82.80
2023-04-11T02:23:04.561Z,82.80
2023-04-11T02:23:29.343Z,82.65
2023-04-11T02:23:52.596Z,82.57
2023-04-11T02:24:17.099Z,82.57
2023-04-11T02:24:41.644Z,82.61
2023-04-11T02:25:06.312Z,82.58
2023-04-11T02:25:30.841Z,82.53
2023-04-11T02:25:55.449Z,82.46
2023-04-11T02:26:18.705Z,82.62
2023-04-11T02:26:42.450Z,82.52
2023-04-11T02:27:06.472Z,82.58
2023-04-11T02:27:33.371Z,82.59
2023-04-11T02:27:59.546Z,82.74
2023-04-11T02:28:24.007Z,82.72
2023-04-11T02:28:50.280Z,82.77
2023-04-11T02:29:13.499Z,82.83
2023-04-11T02:29:36.817Z,82.58
2023-04-11T02:30:01.354Z,82.76
2023-04-11T02:30:28.255Z,82.80
2023-04-11T02:30:54.129Z,82.87
2023-04-11T02:31:17.417Z,82.82
2023-04-11T02:31:40.979Z,82.81
2023-04-11T02:32:06.155Z,82.77
2023-04-11T02:32:30.431Z,82.80
2023-04-11T02:32:53.607Z,82.82
2023-04-11T02:33:16.906Z,82.90
2023-04-11T02:33:39.924Z,82.96
2023-04-11T02:34:03.170Z,82.91
2023-04-11T02:34:27.067Z,82.79
2023-04-11T02:34:56.111Z,82.79
2023-04-11T02:35:26.691Z,83.02
2023-04-11T02:35:50.329Z,82.87
2023-04-11T02:36:14.012Z,82.87
2023-04-11T02:36:39.110Z,82.89
2023-04-11T02:37:02.265Z,82.83
2023-04-11T02:37:26.481Z,82.96
2023-04-11T02:37:49.676Z,82.93
2023-04-11T02:38:12.996Z,82.86
2023-04-11T02:38:37.738Z,82.89
2023-04-11T02:39:00.722Z,82.84
2023-04-11T02:39:24.307Z,83.01
2023-04-11T02:39:47.235Z,82.85
2023-04-11T02:40:10.833Z,82.88
2023-04-11T02:40:34.647Z,82.82
2023-04-11T02:41:00.422Z,82.81
2023-04-11T02:41:27.627Z,82.60
2023-04-11T02:41:57.545Z,82.64
2023-04-11T02:42:20.700Z,82.50
2023-04-11T02:42:47.087Z,82.43
2023-04-11T02:43:10.116Z,82.42
2023-04-11T02:43:34.442Z,82.39
2023-04-11T02:43:57.868Z,82.33
2023-04-11T02:44:22.651Z,82.34
2023-04-11T02:44:46.337Z,82.31
2023-04-11T02:45:09.941Z,82.33
2023-04-11T02:45:33.181Z,82.30
2023-04-11T02:46:09.597Z,82.42
2023-04-11T02:46:36.209Z,82.37
2023-04-11T02:47:00.330Z,82.40
2023-04-11T02:47:28.718Z,82.38
2023-04-11T02:48:01.629Z,82.54
2023-04-11T02:48:27.078Z,82.45
2023-04-11T02:48:50.391Z,82.56
2023-04-11T02:49:13.904Z,82.53
2023-04-11T02:49:37.412Z,82.58
2023-04-11T02:50:00.944Z,82.48
2023-04-11T02:50:28.033Z,82.63
2023-04-11T02:50:51.886Z,82.46
2023-04-11T02:51:15.089Z,82.48
2023-04-11T02:51:38.619Z,82.46
2023-04-11T02:52:01.829Z,82.51
2023-04-11T02:52:26.369Z,82.45
2023-04-11T02:52:49.892Z,82.43
2023-04-11T02:53:16.608Z,82.57
2023-04-11T02:53:44.615Z,82.40
2023-04-11T02:54:13.456Z,82.55
2023-04-11T02:54:37.086Z,82.65
2023-04-11T02:55:01.685Z,82.53
2023-04-11T02:55:27.292Z,82.49
2023-04-11T02:55:51.754Z,82.61
2023-04-11T02:56:19.051Z,82.44
2023-04-11T02:56:44.306Z,82.46
2023-04-11T02:57:07.520Z,82.42
2023-04-11T02:57:30.762Z,82.50
2023-04-11T02:57:54.158Z,82.51
2023-04-11T02:58:18.253Z,82.40
2023-04-11T02:58:43.557Z,82.29
2023-04-11T02:59:08.204Z,82.27
2023-04-11T02:59:31.934Z,82.22
2023-04-11T02:59:57.931Z,82.07
2023-04-11T03:00:33.213Z,82.06
2023-04-11T03:01:00.712Z,82.00
2023-04-11T03:01:27.618Z,81.96
2023-04-11T03:01:59.006Z,81.93
2023-04-11T03:02:23.677Z,82.00
2023-04-11T03:02:47.395Z,81.98
2023-04-11T03:03:12.265Z,82.02
2023-04-11T03:03:38.990Z,82.04
2023-04-11T03:04:02.878Z,81.93
2023-04-11T03:04:35.105Z,81.99
2023-04-11T03:05:09.264Z,82.00
2023-04-11T03:05:33.268Z,82.07
2023-04-11T03:05:57.208Z,82.08
2023-04-11T03:06:20.825Z,82.09
2023-04-11T03:06:44.147Z,82.03
2023-04-11T03:07:07.462Z,82.04
2023-04-11T03:07:32.247Z,82.04
2023-04-11T03:07:57.983Z,82.20
2023-04-11T03:08:24.478Z,82.19
2023-04-11T03:08:50.355Z,82.15
2023-04-11T03:09:13.711Z,82.13
2023-04-11T03:09:40.365Z,82.28
2023-04-11T03:10:03.691Z,82.25
2023-04-11T03:10:29.305Z,82.13
2023-04-11T03:10:54.001Z,82.38
2023-04-11T03:11:17.942Z,82.30
2023-04-11T03:11:41.397Z,82.23
2023-04-11T03:12:04.625Z,82.22
2023-04-11T03:12:27.991Z,82.24
2023-04-11T03:12:53.459Z,82.32
2023-04-11T03:13:16.576Z,82.37
2023-04-11T03:13:39.842Z,82.27
2023-04-11T03:14:07.342Z,82.28
2023-04-11T03:14:32.009Z,82.38
2023-04-11T03:14:57.218Z,82.42
2023-04-11T03:15:24.113Z,82.27
2023-04-11T03:15:48.923Z,82.20
2023-04-11T03:16:14.081Z,82.20
2023-04-11T03:16:38.583Z,82.16
2023-04-11T03:17:02.289Z,82.11
2023-04-11T03:17:28.764Z,82.06
2023-04-11T03:17:52.183Z,82.03
2023-04-11T03:18:15.418Z,82.00
2023-04-11T03:18:41.090Z,82.10
2023-04-11T03:19:06.204Z,81.94
2023-04-11T03:19:29.263Z,81.93
2023-04-11T03:19:52.891Z,82.05
2023-04-11T03:20:21.830Z,81.85
2023-04-11T03:20:47.093Z,82.12
2023-04-11T03:21:15.216Z,82.09
2023-04-11T03:21:50.138Z,82.14
2023-04-11T03:22:13.770Z,82.34
2023-04-11T03:22:38.982Z,82.35
2023-04-11T03:23:02.245Z,82.35
2023-04-11T03:23:25.520Z,82.44
2023-04-11T03:23:49.640Z,82.57
2023-04-11T03:24:13.076Z,82.57
2023-04-11T03:24:39.565Z,82.54
2023-04-11T03:25:03.817Z,82.58
2023-04-11T03:25:28.268Z,82.64
2023-04-11T03:25:51.905Z,82.75
2023-04-11T03:26:15.295Z,82.88
2023-04-11T03:26:39.131Z,82.74
2023-04-11T03:27:06.124Z,82.79
2023-04-11T03:27:29.748Z,82.69
2023-04-11T03:27:58.895Z,82.82
2023-04-11T03:28:24.186Z,82.68
2023-04-11T03:28:47.204Z,82.71
2023-04-11T03:29:12.130Z,82.83
2023-04-11T03:29:45.632Z,82.88
2023-04-11T03:30:19.941Z,82.91
2023-04-11T03:30:44.180Z,82.96
2023-04-11T03:31:09.885Z,83.05
2023-04-11T03:31:33.418Z,82.92
2023-04-11T03:31:56.789Z,83.08
2023-04-11T03:32:19.806Z,83.02
2023-04-11T03:32:43.676Z,82.89
2023-04-11T03:33:07.375Z,82.97
2023-04-11T03:33:30.574Z,83.02
2023-04-11T03:33:53.707Z,82.90
2023-04-11T03:34:18.952Z,82.95
2023-04-11T03:34:42.509Z,82.89
2023-04-11T03:35:06.204Z,82.84
2023-04-11T03:35:30.670Z,82.93
2023-04-11T03:35:54.892Z,82.82
2023-04-11T03:36:19.063Z,82.96
2023-04-11T03:36:44.607Z,82.99
2023-04-11T03:37:08.627Z,82.96
2023-04-11T03:37:32.496Z,83.07
2023-04-11T03:37:55.777Z,83.11
2023-04-11T03:38:18.887Z,83.14
2023-04-11T03:38:42.823Z,83.24
2023-04-11T03:39:06.246Z,83.19
2023-04-11T03:39:29.262Z,83.37
2023-04-11T03:39:53.593Z,83.40
2023-04-11T03:40:18.801Z,83.44
2023-04-11T03:40:46.267Z,83.46
2023-04-11T03:41:11.630Z,83.46
2023-04-11T03:41:34.854Z,83.60
2023-04-11T03:41:58.170Z,83.66
2023-04-11T03:42:21.898Z,83.72
2023-04-11T03:42:48.176Z,83.78
2023-04-11T03:43:13.542Z,83.76
2023-04-11T03:43:37.076Z,83.77
2023-04-11T03:44:00.183Z,83.81
2023-04-11T03:44:23.469Z,83.70
2023-04-11T03:44:46.920Z,83.84
2023-04-11T03:45:10.237Z,83.84
2023-04-11T03:45:33.349Z,83.85
2023-04-11T03:45:57.793Z,83.87
2023-04-11T03:46:33.246Z,83.87
2023-04-11T03:46:57.151Z,83.81
2023-04-11T03:47:21.354Z,83.75
2023-04-11T03:47:44.901Z,83.80
2023-04-11T03:48:08.797Z,83.79
2023-04-11T03:48:58.260Z,83.65
2023-04-11T03:49:22.344Z,83.55
2023-04-11T03:49:48.937Z,83.37
2023-04-11T03:50:12.461Z,83.40
2023-04-11T03:50:39.460Z,83.35
2023-04-11T03:51:02.786Z,83.30
2023-04-11T03:51:33.686Z,83.20
2023-04-11T03:52:02.095Z,83.15
2023-04-11T03:52:25.841Z,83.13
2023-04-11T03:52:49.346Z,83.05
2023-04-11T03:53:12.664Z,83.13
2023-04-11T03:53:37.625Z,83.11
2023-04-11T03:54:10.453Z,83.02
2023-04-11T03:54:37.669Z,82.98
2023-04-11T03:55:00.979Z,83.07
2023-04-11T03:55:26.238Z,83.06
2023-04-11T03:55:49.619Z,82.85
2023-04-11T03:56:12.985Z,82.90
2023-04-11T03:56:36.459Z,82.80
2023-04-11T03:56:59.509Z,82.75
2023-04-11T03:57:28.155Z,82.76
2023-04-11T03:57:52.325Z,82.79
2023-04-11T03:58:15.810Z,82.68
2023-04-11T03:58:39.864Z,82.75
2023-04-11T03:59:03.623Z,82.78
2023-04-11T03:59:47.867Z,82.75
2023-04-11T04:00:11.790Z,82.64
2023-04-11T04:01:02.861Z,82.73
2023-04-11T04:01:27.365Z,82.58
2023-04-11T04:01:52.267Z,82.47
2023-04-11T04:02:15.809Z,82.56
2023-04-11T04:02:43.369Z,82.58
2023-04-11T04:03:08.741Z,82.61
2023-04-11T04:03:33.216Z,82.56
2023-04-11T04:03:57.106Z,82.67
2023-04-11T04:04:20.595Z,82.55
2023-04-11T04:04:58.855Z,82.47
2023-04-11T04:05:32.925Z,82.35
2023-04-11T04:06:01.255Z,82.37
2023-04-11T04:06:28.694Z,82.53
2023-04-11T04:06:57.112Z,82.38
2023-04-11T04:08:14.314Z,82.15
2023-04-11T04:08:40.707Z,82.10
2023-04-11T04:09:04.442Z,81.95
2023-04-11T04:09:33.886Z,81.99
2023-04-11T04:09:57.100Z,81.82
2023-04-11T04:10:20.524Z,81.83
2023-04-11T04:10:47.216Z,81.84
2023-04-11T04:11:10.560Z,81.82
2023-04-11T04:11:33.941Z,81.73
2023-04-11T04:11:59.337Z,81.64
2023-04-11T04:12:37.980Z,81.76
2023-04-11T04:13:15.826Z,81.77
2023-04-11T04:13:56.031Z,81.81
2023-04-11T04:14:19.742Z,81.97
2023-04-11T04:14:43.870Z,81.97
2023-04-11T04:15:07.402Z,82.02
2023-04-11T04:15:32.872Z,81.95
2023-04-11T04:15:58.465Z,82.06
2023-04-11T04:16:24.151Z,81.98
2023-04-11T04:16:50.327Z,82.09
2023-04-11T04:17:15.860Z,82.08
2023-04-11T04:17:38.905Z,82.11
2023-04-11T04:18:05.705Z,82.11
2023-04-11T04:18:41.420Z,82.11
2023-04-11T04:19:04.780Z,82.08
2023-04-11T04:19:34.745Z,82.20
2023-04-11T04:20:02.160Z,82.22
2023-04-11T04:20:26.085Z,82.21
2023-04-11T04:20:51.971Z,82.26
2023-04-11T04:21:17.026Z,82.26
2023-04-11T04:21:42.085Z,82.21
2023-04-11T04:22:12.046Z,82.20
2023-04-11T04:22:38.722Z,82.21
2023-04-11T04:23:04.781Z,82.11
2023-04-11T04:23:47.686Z,82.23
2023-04-11T04:24:28.067Z,82.23
2023-04-11T04:25:17.062Z,81.93
2023-04-11T04:25:42.424Z,81.87
2023-04-11T04:26:06.251Z,81.82
2023-04-11T04:26:38.132Z,81.81
2023-04-11T04:27:30.330Z,81.72
2023-04-11T04:27:54.353Z,81.66
2023-04-11T04:28:22.502Z,81.72
2023-04-11T04:28:48.566Z,81.64
2023-04-11T04:29:18.249Z,81.74
2023-04-11T04:29:48.308Z,81.79
2023-04-11T04:30:19.388Z,81.79
2023-04-11T04:31:04.485Z,81.74
2023-04-11T04:31:36.474Z,81.81
2023-04-11T04:32:03.402Z,81.71
2023-04-11T04:32:33.027Z,81.68
2023-04-11T04:33:05.299Z,81.68
2023-04-11T04:33:28.999Z,81.61
2023-04-11T04:34:03.159Z,81.62
2023-04-11T04:34:29.313Z,81.47
2023-04-11T04:34:58.029Z,81.43
2023-04-11T04:35:33.301Z,81.42
2023-04-11T04:36:00.361Z,81.25
2023-04-11T04:36:26.035Z,81.27
2023-04-11T04:36:49.557Z,81.34
2023-04-11T04:37:23.114Z,81.07
2023-04-11T04:37:51.038Z,81.06
2023-04-11T04:38:21.917Z,81.01
2023-04-11T04:38:48.132Z,80.88
2023-04-11T04:39:12.343Z,80.91
2023-04-11T04:39:38.308Z,80.83
2023-04-11T04:40:08.027Z,80.64
2023-04-11T04:40:45.723Z,80.57
2023-04-11T04:41:15.274Z,80.59
2023-04-11T04:41:41.142Z,80.44
2023-04-11T04:42:04.585Z,80.43
2023-04-11T04:42:58.549Z,80.50
2023-04-11T04:43:42.871Z,80.49
2023-04-11T04:44:16.508Z,80.34
2023-04-11T04:44:45.852Z,80.22
2023-04-11T04:45:13.693Z,80.28
2023-04-11T04:45:37.553Z,80.16
2023-04-11T04:46:01.344Z,80.07
2023-04-11T04:46:36.781Z,80.12
2023-04-11T04:46:59.953Z,80.09
2023-04-11T04:47:24.518Z,79.91
2023-04-11T04:47:47.527Z,79.85
2023-04-11T04:48:12.856Z,79.97
2023-04-11T04:48:35.995Z,80.01
2023-04-11T04:49:01.001Z,79.91
2023-04-11T04:49:25.469Z,79.94
2023-04-11T04:49:48.685Z,79.95
2023-04-11T04:50:12.003Z,80.01
2023-04-11T04:50:37.778Z,80.06
2023-04-11T04:51:01.707Z,80.21
2023-04-11T04:51:30.353Z,80.17
2023-04-11T04:52:01.028Z,80.07
2023-04-11T04:52:26.013Z,80.25
2023-04-11T04:52:49.000Z,80.31
2023-04-11T04:53:14.976Z,80.35
2023-04-11T04:53:42.893Z,80.38
2023-04-11T04:54:06.906Z,80.39
2023-04-11T04:54:31.521Z,80.44
2023-04-11T04:54:58.212Z,80.36
2023-04-11T04:55:21.589Z,80.41
2023-04-11T04:55:46.453Z,80.46
2023-04-11T04:56:10.023Z,80.44
2023-04-11T04:56:35.763Z,80.53
2023-04-11T04:56:59.981Z,80.53
2023-04-11T04:57:23.091Z,80.49
2023-04-11T04:57:46.444Z,80.63
2023-04-11T04:58:09.727Z,80.54
2023-04-11T04:58:36.730Z,80.59
2023-04-11T04:59:01.487Z,80.57
2023-04-11T04:59:26.845Z,80.64
2023-04-11T04:59:54.458Z,80.71
2023-04-11T05:00:18.003Z,80.68
2023-04-11T05:00:41.822Z,80.69
2023-04-11T05:01:14.150Z,80.72
2023-04-11T05:01:40.271Z,80.81
2023-04-11T05:02:04.312Z,80.75
2023-04-11T05:02:28.795Z,80.67
2023-04-11T05:02:55.123Z,80.73
2023-04-11T05:03:21.007Z,80.69
2023-04-11T05:03:46.959Z,80.78
2023-04-11T05:04:16.121Z,80.75
2023-04-11T05:04:46.961Z,80.84
2023-04-11T05:05:11.986Z,80.86
2023-04-11T05:05:35.859Z,80.99
2023-04-11T05:05:59.682Z,81.06
2023-04-11T05:06:29.644Z,81.16
2023-04-11T05:06:59.206Z,81.11
2023-04-11T05:07:23.756Z,81.24
2023-04-11T05:07:54.430Z,81.34
2023-04-11T05:08:21.333Z,81.30
2023-04-11T05:08:44.979Z,81.42
2023-04-11T05:09:10.913Z,81.41
2023-04-11T05:09:34.763Z,81.45
2023-04-11T05:10:07.815Z,81.51
2023-04-11T05:10:33.264Z,81.48
2023-04-11T05:10:57.363Z,81.65
2023-04-11T05:11:20.821Z,81.69
2023-04-11T05:11:44.038Z,81.67
2023-04-11T05:12:07.414Z,81.66
2023-04-11T05:12:32.412Z,81.57
2023-04-11T05:12:59.721Z,81.78
2023-04-11T05:13:23.244Z,81.78
2023-04-11T05:13:50.449Z,81.82
2023-04-11T05:14:13.767Z,81.83
2023-04-11T05:14:39.759Z,81.82
2023-04-11T05:15:11.612Z,81.89
2023-04-11T05:15:39.577Z,82.07
2023-04-11T05:16:08.114Z,81.88
2023-04-11T05:16:32.472Z,81.89
2023-04-11T05:16:57.697Z,82.19
2023-04-11T05:17:25.331Z,81.75
2023-04-11T05:17:51.013Z,81.93
2023-04-11T05:18:15.751Z,81.86
2023-04-11T05:18:38.978Z,81.78
2023-04-11T05:19:02.104Z,81.79
2023-04-11T05:19:25.603Z,81.85
2023-04-11T05:19:49.229Z,81.78
2023-04-11T05:20:12.701Z,81.68
2023-04-11T05:20:36.992Z,81.66
2023-04-11T05:21:01.850Z,81.63
2023-04-11T05:21:31.540Z,81.71
2023-04-11T05:21:54.821Z,81.79
2023-04-11T05:22:22.539Z,81.77
2023-04-11T05:22:51.096Z,81.76
2023-04-11T05:23:14.509Z,81.82
2023-04-11T05:23:37.935Z,81.88
2023-04-11T05:24:01.688Z,81.79
2023-04-11T05:24:28.143Z,81.88
2023-04-11T05:24:51.963Z,81.73
2023-04-11T05:25:16.420Z,81.90
2023-04-11T05:25:39.734Z,81.79
2023-04-11T05:26:03.150Z,81.67
2023-04-11T05:26:27.893Z,81.72
2023-04-11T05:26:51.112Z,81.62
2023-04-11T05:27:15.247Z,81.52
2023-04-11T05:27:38.981Z,81.45
2023-04-11T05:28:02.598Z,81.45